sensor_id;sensor_type;location;lat;lon;timestamp;temperature;humidity
56044;DHT22;41912;51.022;3.664;2023-02-21T00:00:12;9.80;99.90
56044;DHT22;41912;51.022;3.664;2023-02-21T00:02:56;9.80;99.90
56044;DHT22;41912;51.022;3.664;2023-02-21T00:05:40;9.70;99.90
56044;DHT22;41912;51.022;3.664;2023-02-21T00:08:24;9.70;99.90
56044;DHT22;41912;51.022;3.664;2023-02-21T00:11:08;9.70;99.90
56044;DHT22;41912;51.022;3.664;2023-02-21T00:13:52;9.70;99.90
56044;DHT22;41912;51.022;3.664;2023-02-21T00:16:36;9.80;99.90
56044;DHT22;41912;51.022;3.664;2023-02-21T00:19:20;9.80;99.90
56044;DHT22;41912;51.022;3.664;2023-02-21T00:22:05;9.80;99.90
56044;DHT22;41912;51.022;3.664;2023-02-21T00:24:49;9.80;99.90
56044;DHT22;41912;51.022;3.664;2023-02-21T00:27:33;9.80;99.90
56044;DHT22;41912;51.022;3.664;2023-02-21T00:30:17;9.80;99.90
56044;DHT22;41912;51.022;3.664;2023-02-21T00:33:01;9.70;99.90
56044;DHT22;41912;51.022;3.664;2023-02-21T00:35:45;9.70;99.90
56044;DHT22;41912;51.022;3.664;2023-02-21T00:38:29;9.70;99.90
56044;DHT22;41912;51.022;3.664;2023-02-21T00:41:13;9.70;99.90
56044;DHT22;41912;51.022;3.664;2023-02-21T00:43:57;9.60;99.90
56044;DHT22;41912;51.022;3.664;2023-02-21T00:46:41;9.60;99.90
56044;DHT22;41912;51.022;3.664;2023-02-21T00:49:25;9.60;99.90
56044;DHT22;41912;51.022;3.664;2023-02-21T00:52:09;9.60;99.90
56044;DHT22;41912;51.022;3.664;2023-02-21T00:54:53;9.60;99.90
56044;DHT22;41912;51.022;3.664;2023-02-21T00:57:37;9.70;99.90
56044;DHT22;41912;51.022;3.664;2023-02-21T01:00:23;9.60;99.90
56044;DHT22;41912;51.022;3.664;2023-02-21T01:03:08;9.60;99.90
56044;DHT22;41912;51.022;3.664;2023-02-21T01:05:53;9.60;99.90
56044;DHT22;41912;51.022;3.664;2023-02-21T01:08:44;9.60;99.90
56044;DHT22;41912;51.022;3.664;2023-02-21T01:11:29;9.60;99.90
56044;DHT22;41912;51.022;3.664;2023-02-21T01:14:14;9.60;99.90
56044;DHT22;41912;51.022;3.664;2023-02-21T01:16:58;9.60;99.90
56044;DHT22;41912;51.022;3.664;2023-02-21T01:19:42;9.60;99.90
56044;DHT22;41912;51.022;3.664;2023-02-21T01:22:27;9.60;99.90
56044;DHT22;41912;51.022;3.664;2023-02-21T01:25:11;9.60;99.90
56044;DHT22;41912;51.022;3.664;2023-02-21T01:27:55;9.60;99.90
56044;DHT22;41912;51.022;3.664;2023-02-21T01:30:39;9.50;99.90
56044;DHT22;41912;51.022;3.664;2023-02-21T01:33:24;9.50;99.90
56044;DHT22;41912;51.022;3.664;2023-02-21T01:36:08;9.50;99.90
56044;DHT22;41912;51.022;3.664;2023-02-21T01:38:53;9.50;99.90
56044;DHT22;41912;51.022;3.664;2023-02-21T01:41:37;9.50;99.90
56044;DHT22;41912;51.022;3.664;2023-02-21T01:47:15;9.50;99.90
56044;DHT22;41912;51.022;3.664;2023-02-21T01:50:03;9.50;99.90
56044;DHT22;41912;51.022;3.664;2023-02-21T01:52:49;9.40;99.90
56044;DHT22;41912;51.022;3.664;2023-02-21T01:55:37;9.40;99.90
56044;DHT22;41912;51.022;3.664;2023-02-21T01:58:23;9.40;99.90
56044;DHT22;41912;51.022;3.664;2023-02-21T02:01:13;9.40;99.90
56044;DHT22;41912;51.022;3.664;2023-02-21T02:04:00;9.40;99.90
56044;DHT22;41912;51.022;3.664;2023-02-21T02:06:44;9.40;99.90
56044;DHT22;41912;51.022;3.664;2023-02-21T02:09:28;9.40;99.90
56044;DHT22;41912;51.022;3.664;2023-02-21T02:27:30;9.40;99.90
56044;DHT22;41912;51.022;3.664;2023-02-21T02:30:02;9.40;99.90
56044;DHT22;41912;51.022;3.664;2023-02-21T02:35:42;9.40;99.90
56044;DHT22;41912;51.022;3.664;2023-02-21T02:38:26;9.40;99.90
56044;DHT22;41912;51.022;3.664;2023-02-21T02:41:33;9.40;99.90
56044;DHT22;41912;51.022;3.664;2023-02-21T02:44:12;9.40;99.90
56044;DHT22;41912;51.022;3.664;2023-02-21T02:46:41;9.40;99.90
56044;DHT22;41912;51.022;3.664;2023-02-21T02:49:43;9.40;99.90
56044;DHT22;41912;51.022;3.664;2023-02-21T02:52:07;9.40;99.90
56044;DHT22;41912;51.022;3.664;2023-02-21T02:54:33;9.50;99.90
56044;DHT22;41912;51.022;3.664;2023-02-21T02:57:01;9.40;99.90
56044;DHT22;41912;51.022;3.664;2023-02-21T02:59:29;9.40;99.90
56044;DHT22;41912;51.022;3.664;2023-02-21T03:02:23;9.40;99.90
56044;DHT22;41912;51.022;3.664;2023-02-21T03:05:11;9.40;99.90
56044;DHT22;41912;51.022;3.664;2023-02-21T03:08:19;9.40;99.90
56044;DHT22;41912;51.022;3.664;2023-02-21T03:10:57;9.40;99.90
56044;DHT22;41912;51.022;3.664;2023-02-21T03:13:50;9.40;99.90
56044;DHT22;41912;51.022;3.664;2023-02-21T03:16:38;9.40;99.90
56044;DHT22;41912;51.022;3.664;2023-02-21T03:19:13;9.40;99.90
56044;DHT22;41912;51.022;3.664;2023-02-21T03:22:10;9.40;99.90
56044;DHT22;41912;51.022;3.664;2023-02-21T03:24:39;9.40;99.90
56044;DHT22;41912;51.022;3.664;2023-02-21T03:27:07;9.40;99.90
56044;DHT22;41912;51.022;3.664;2023-02-21T03:29:33;9.40;99.90
56044;DHT22;41912;51.022;3.664;2023-02-21T03:32:07;9.40;99.90
56044;DHT22;41912;51.022;3.664;2023-02-21T03:34:37;9.40;99.90
56044;DHT22;41912;51.022;3.664;2023-02-21T03:37:04;9.40;99.90
56044;DHT22;41912;51.022;3.664;2023-02-21T03:39:31;9.40;99.90
56044;DHT22;41912;51.022;3.664;2023-02-21T03:41:56;9.40;99.90
56044;DHT22;41912;51.022;3.664;2023-02-21T03:44:25;9.40;99.90
56044;DHT22;41912;51.022;3.664;2023-02-21T03:46:50;9.40;99.90
56044;DHT22;41912;51.022;3.664;2023-02-21T03:49:16;9.40;99.90
56044;DHT22;41912;51.022;3.664;2023-02-21T03:51:42;9.40;99.90
56044;DHT22;41912;51.022;3.664;2023-02-21T03:54:07;9.40;99.90
56044;DHT22;41912;51.022;3.664;2023-02-21T03:56:33;9.40;99.90
56044;DHT22;41912;51.022;3.664;2023-02-21T03:58:58;9.40;99.90
56044;DHT22;41912;51.022;3.664;2023-02-21T04:01:24;9.40;99.90
56044;DHT22;41912;51.022;3.664;2023-02-21T04:03:50;9.40;99.90
56044;DHT22;41912;51.022;3.664;2023-02-21T04:06:16;9.40;99.90
56044;DHT22;41912;51.022;3.664;2023-02-21T04:08:42;9.40;99.90
56044;DHT22;41912;51.022;3.664;2023-02-21T04:11:07;9.40;99.90
56044;DHT22;41912;51.022;3.664;2023-02-21T04:13:33;9.40;99.90
56044;DHT22;41912;51.022;3.664;2023-02-21T04:15:58;9.40;99.90
56044;DHT22;41912;51.022;3.664;2023-02-21T04:18:24;9.40;99.90
56044;DHT22;41912;51.022;3.664;2023-02-21T04:20:50;9.40;99.90
56044;DHT22;41912;51.022;3.664;2023-02-21T04:23:18;9.40;99.90
56044;DHT22;41912;51.022;3.664;2023-02-21T04:25:44;9.40;99.90
56044;DHT22;41912;51.022;3.664;2023-02-21T04:28:10;9.30;99.90
56044;DHT22;41912;51.022;3.664;2023-02-21T04:30:35;9.30;99.90
56044;DHT22;41912;51.022;3.664;2023-02-21T04:33:02;9.30;99.90
56044;DHT22;41912;51.022;3.664;2023-02-21T04:35:28;9.30;99.90
56044;DHT22;41912;51.022;3.664;2023-02-21T04:37:53;9.30;99.90
56044;DHT22;41912;51.022;3.664;2023-02-21T04:40:19;9.30;99.90
56044;DHT22;41912;51.022;3.664;2023-02-21T04:42:45;9.20;99.90
56044;DHT22;41912;51.022;3.664;2023-02-21T04:45:10;9.20;99.90
56044;DHT22;41912;51.022;3.664;2023-02-21T04:47:36;9.30;99.90
56044;DHT22;41912;51.022;3.664;2023-02-21T04:50:02;9.30;99.90
56044;DHT22;41912;51.022;3.664;2023-02-21T04:52:27;9.30;99.90
56044;DHT22;41912;51.022;3.664;2023-02-21T04:54:53;9.30;99.90
56044;DHT22;41912;51.022;3.664;2023-02-21T04:57:19;9.30;99.90
56044;DHT22;41912;51.022;3.664;2023-02-21T04:59:45;9.30;99.90
56044;DHT22;41912;51.022;3.664;2023-02-21T05:02:11;9.30;99.90
56044;DHT22;41912;51.022;3.664;2023-02-21T05:04:36;9.30;99.90
56044;DHT22;41912;51.022;3.664;2023-02-21T05:07:03;9.30;99.90
56044;DHT22;41912;51.022;3.664;2023-02-21T05:09:29;9.30;99.90
56044;DHT22;41912;51.022;3.664;2023-02-21T05:11:55;9.30;99.90
56044;DHT22;41912;51.022;3.664;2023-02-21T05:14:20;9.30;99.90
56044;DHT22;41912;51.022;3.664;2023-02-21T05:16:46;9.30;99.90
56044;DHT22;41912;51.022;3.664;2023-02-21T05:19:12;9.30;99.90
56044;DHT22;41912;51.022;3.664;2023-02-21T05:21:37;9.30;99.90
56044;DHT22;41912;51.022;3.664;2023-02-21T05:24:04;9.40;99.90
56044;DHT22;41912;51.022;3.664;2023-02-21T05:26:35;9.30;99.90
56044;DHT22;41912;51.022;3.664;2023-02-21T05:29:01;9.40;99.90
56044;DHT22;41912;51.022;3.664;2023-02-21T05:31:27;9.40;99.90
56044;DHT22;41912;51.022;3.664;2023-02-21T05:33:53;9.40;99.90
56044;DHT22;41912;51.022;3.664;2023-02-21T05:36:19;9.40;99.90
56044;DHT22;41912;51.022;3.664;2023-02-21T05:38:47;9.40;99.90
56044;DHT22;41912;51.022;3.664;2023-02-21T05:41:14;9.40;99.90
56044;DHT22;41912;51.022;3.664;2023-02-21T05:43:42;9.40;99.90
56044;DHT22;41912;51.022;3.664;2023-02-21T05:48:43;9.40;99.90
56044;DHT22;41912;51.022;3.664;2023-02-21T05:51:08;9.40;99.90
56044;DHT22;41912;51.022;3.664;2023-02-21T05:53:34;9.30;99.90
56044;DHT22;41912;51.022;3.664;2023-02-21T05:56:00;9.30;99.90
56044;DHT22;41912;51.022;3.664;2023-02-21T05:58:25;9.30;99.90
56044;DHT22;41912;51.022;3.664;2023-02-21T06:00:51;9.30;99.90
56044;DHT22;41912;51.022;3.664;2023-02-21T06:03:16;9.30;99.90
56044;DHT22;41912;51.022;3.664;2023-02-21T06:05:42;9.30;99.90
56044;DHT22;41912;51.022;3.664;2023-02-21T06:08:08;9.40;99.90
56044;DHT22;41912;51.022;3.664;2023-02-21T06:10:34;9.40;99.90
56044;DHT22;41912;51.022;3.664;2023-02-21T06:13:00;9.40;99.90
56044;DHT22;41912;51.022;3.664;2023-02-21T06:15:28;9.40;99.90
56044;DHT22;41912;51.022;3.664;2023-02-21T06:17:54;9.40;99.90
56044;DHT22;41912;51.022;3.664;2023-02-21T06:20:19;9.40;99.90
56044;DHT22;41912;51.022;3.664;2023-02-21T06:22:45;9.40;99.90
56044;DHT22;41912;51.022;3.664;2023-02-21T06:25:12;9.40;99.90
56044;DHT22;41912;51.022;3.664;2023-02-21T06:27:38;9.40;99.90
56044;DHT22;41912;51.022;3.664;2023-02-21T06:30:05;9.40;99.90
56044;DHT22;41912;51.022;3.664;2023-02-21T06:32:31;9.40;99.90
56044;DHT22;41912;51.022;3.664;2023-02-21T06:34:56;9.30;99.90
56044;DHT22;41912;51.022;3.664;2023-02-21T06:37:22;9.40;99.90
56044;DHT22;41912;51.022;3.664;2023-02-21T06:39:48;9.30;99.90
56044;DHT22;41912;51.022;3.664;2023-02-21T06:42:14;9.30;99.90
56044;DHT22;41912;51.022;3.664;2023-02-21T06:44:47;9.30;99.90
56044;DHT22;41912;51.022;3.664;2023-02-21T06:47:14;9.30;99.90
56044;DHT22;41912;51.022;3.664;2023-02-21T06:49:40;9.30;99.90
56044;DHT22;41912;51.022;3.664;2023-02-21T06:52:06;9.30;99.90
56044;DHT22;41912;51.022;3.664;2023-02-21T06:54:32;9.30;99.90
56044;DHT22;41912;51.022;3.664;2023-02-21T06:56:57;9.30;99.90
56044;DHT22;41912;51.022;3.664;2023-02-21T06:59:24;9.30;99.90
56044;DHT22;41912;51.022;3.664;2023-02-21T07:01:50;9.40;99.90
56044;DHT22;41912;51.022;3.664;2023-02-21T07:04:16;9.40;99.90
56044;DHT22;41912;51.022;3.664;2023-02-21T07:06:41;9.40;99.90
56044;DHT22;41912;51.022;3.664;2023-02-21T07:09:07;9.40;99.90
56044;DHT22;41912;51.022;3.664;2023-02-21T07:11:33;9.40;99.90
56044;DHT22;41912;51.022;3.664;2023-02-21T07:13:59;9.30;99.90
56044;DHT22;41912;51.022;3.664;2023-02-21T07:16:25;9.40;99.90
56044;DHT22;41912;51.022;3.664;2023-02-21T07:18:51;9.40;99.90
56044;DHT22;41912;51.022;3.664;2023-02-21T07:21:18;9.40;99.90
56044;DHT22;41912;51.022;3.664;2023-02-21T07:23:46;9.40;99.90
56044;DHT22;41912;51.022;3.664;2023-02-21T07:26:12;9.40;99.90
56044;DHT22;41912;51.022;3.664;2023-02-21T07:28:38;9.30;99.90
56044;DHT22;41912;51.022;3.664;2023-02-21T07:31:04;9.30;99.90
56044;DHT22;41912;51.022;3.664;2023-02-21T07:33:30;9.30;99.90
56044;DHT22;41912;51.022;3.664;2023-02-21T07:35:56;9.20;99.90
56044;DHT22;41912;51.022;3.664;2023-02-21T07:38:24;9.30;99.90
56044;DHT22;41912;51.022;3.664;2023-02-21T07:40:50;9.30;99.90
56044;DHT22;41912;51.022;3.664;2023-02-21T07:43:16;9.20;99.90
56044;DHT22;41912;51.022;3.664;2023-02-21T07:45:41;9.20;99.90
56044;DHT22;41912;51.022;3.664;2023-02-21T07:48:07;9.20;99.90
56044;DHT22;41912;51.022;3.664;2023-02-21T07:50:32;9.20;99.90
56044;DHT22;41912;51.022;3.664;2023-02-21T07:52:59;9.20;99.90
56044;DHT22;41912;51.022;3.664;2023-02-21T07:55:25;9.20;99.90
56044;DHT22;41912;51.022;3.664;2023-02-21T07:57:52;9.20;99.90
56044;DHT22;41912;51.022;3.664;2023-02-21T08:00:18;9.20;99.90
56044;DHT22;41912;51.022;3.664;2023-02-21T08:02:47;9.20;99.90
56044;DHT22;41912;51.022;3.664;2023-02-21T08:05:16;9.20;99.90
56044;DHT22;41912;51.022;3.664;2023-02-21T08:07:42;9.20;99.90
56044;DHT22;41912;51.022;3.664;2023-02-21T08:10:09;9.20;99.90
56044;DHT22;41912;51.022;3.664;2023-02-21T08:12:34;9.20;99.90
56044;DHT22;41912;51.022;3.664;2023-02-21T08:15:00;9.20;99.90
56044;DHT22;41912;51.022;3.664;2023-02-21T08:17:26;9.30;99.90
56044;DHT22;41912;51.022;3.664;2023-02-21T08:19:51;9.30;99.90
56044;DHT22;41912;51.022;3.664;2023-02-21T08:22:17;9.40;99.90
56044;DHT22;41912;51.022;3.664;2023-02-21T08:24:43;9.40;99.90
56044;DHT22;41912;51.022;3.664;2023-02-21T08:27:09;9.40;99.90
56044;DHT22;41912;51.022;3.664;2023-02-21T08:29:35;9.40;99.90
56044;DHT22;41912;51.022;3.664;2023-02-21T08:32:00;9.40;99.90
56044;DHT22;41912;51.022;3.664;2023-02-21T08:34:27;9.40;99.90
56044;DHT22;41912;51.022;3.664;2023-02-21T08:36:54;9.30;99.90
56044;DHT22;41912;51.022;3.664;2023-02-21T08:39:20;9.30;99.90
56044;DHT22;41912;51.022;3.664;2023-02-21T08:41:46;9.30;99.90
56044;DHT22;41912;51.022;3.664;2023-02-21T08:44:17;9.30;99.90
56044;DHT22;41912;51.022;3.664;2023-02-21T08:46:46;9.30;99.90
56044;DHT22;41912;51.022;3.664;2023-02-21T08:49:12;9.20;99.90
56044;DHT22;41912;51.022;3.664;2023-02-21T08:51:38;9.20;99.90
56044;DHT22;41912;51.022;3.664;2023-02-21T08:54:05;9.20;99.90
56044;DHT22;41912;51.022;3.664;2023-02-21T08:56:31;9.30;99.90
56044;DHT22;41912;51.022;3.664;2023-02-21T08:58:57;9.30;99.90
56044;DHT22;41912;51.022;3.664;2023-02-21T09:01:23;9.30;99.90
56044;DHT22;41912;51.022;3.664;2023-02-21T09:03:49;9.30;99.90
56044;DHT22;41912;51.022;3.664;2023-02-21T09:06:15;9.30;99.90
56044;DHT22;41912;51.022;3.664;2023-02-21T09:08:41;9.30;99.90
56044;DHT22;41912;51.022;3.664;2023-02-21T09:11:07;9.30;99.90
56044;DHT22;41912;51.022;3.664;2023-02-21T09:13:33;9.30;99.90
56044;DHT22;41912;51.022;3.664;2023-02-21T09:16:01;9.40;99.90
56044;DHT22;41912;51.022;3.664;2023-02-21T09:18:28;9.40;99.90
56044;DHT22;41912;51.022;3.664;2023-02-21T09:20:55;9.40;99.90
56044;DHT22;41912;51.022;3.664;2023-02-21T09:23:23;9.50;99.90
56044;DHT22;41912;51.022;3.664;2023-02-21T09:25:50;9.40;99.90
56044;DHT22;41912;51.022;3.664;2023-02-21T09:28:16;9.40;99.90
56044;DHT22;41912;51.022;3.664;2023-02-21T09:30:42;9.40;99.90
56044;DHT22;41912;51.022;3.664;2023-02-21T09:33:08;9.40;99.90
56044;DHT22;41912;51.022;3.664;2023-02-21T09:35:34;9.40;99.90
56044;DHT22;41912;51.022;3.664;2023-02-21T09:38:01;9.50;99.90
56044;DHT22;41912;51.022;3.664;2023-02-21T09:42:59;9.50;99.90
56044;DHT22;41912;51.022;3.664;2023-02-21T09:45:30;9.50;99.90
56044;DHT22;41912;51.022;3.664;2023-02-21T09:48:00;9.50;99.90
56044;DHT22;41912;51.022;3.664;2023-02-21T09:50:39;9.50;99.90
56044;DHT22;41912;51.022;3.664;2023-02-21T09:53:07;9.50;99.90
56044;DHT22;41912;51.022;3.664;2023-02-21T09:55:35;9.50;99.90
56044;DHT22;41912;51.022;3.664;2023-02-21T09:58:02;9.50;99.90
56044;DHT22;41912;51.022;3.664;2023-02-21T10:00:32;9.50;99.90
56044;DHT22;41912;51.022;3.664;2023-02-21T10:03:05;9.50;99.90
56044;DHT22;41912;51.022;3.664;2023-02-21T10:08:34;9.50;99.90
56044;DHT22;41912;51.022;3.664;2023-02-21T10:14:03;9.50;99.90
56044;DHT22;41912;51.022;3.664;2023-02-21T10:16:44;9.50;99.90
56044;DHT22;41912;51.022;3.664;2023-02-21T10:19:30;9.50;99.90
56044;DHT22;41912;51.022;3.664;2023-02-21T10:22:00;9.60;99.90
56044;DHT22;41912;51.022;3.664;2023-02-21T10:24:29;9.60;99.90
56044;DHT22;41912;51.022;3.664;2023-02-21T10:27:06;9.60;99.90
56044;DHT22;41912;51.022;3.664;2023-02-21T10:29:37;9.60;99.90
56044;DHT22;41912;51.022;3.664;2023-02-21T10:32:03;9.60;99.90
56044;DHT22;41912;51.022;3.664;2023-02-21T10:34:31;9.60;99.90
56044;DHT22;41912;51.022;3.664;2023-02-21T10:39:47;9.40;99.90
56044;DHT22;41912;51.022;3.664;2023-02-21T10:42:33;9.40;99.90
56044;DHT22;41912;51.022;3.664;2023-02-21T10:45:02;9.40;99.90
56044;DHT22;41912;51.022;3.664;2023-02-21T10:47:44;9.50;99.90
56044;DHT22;41912;51.022;3.664;2023-02-21T10:50:12;9.50;99.90
56044;DHT22;41912;51.022;3.664;2023-02-21T10:52:49;9.50;99.90
56044;DHT22;41912;51.022;3.664;2023-02-21T10:55:20;9.60;99.90
56044;DHT22;41912;51.022;3.664;2023-02-21T10:57:54;9.60;99.90
56044;DHT22;41912;51.022;3.664;2023-02-21T11:03:06;9.60;99.90
56044;DHT22;41912;51.022;3.664;2023-02-21T11:05:31;9.60;99.90
56044;DHT22;41912;51.022;3.664;2023-02-21T11:08:05;9.60;99.90
56044;DHT22;41912;51.022;3.664;2023-02-21T11:10:38;9.60;99.90
56044;DHT22;41912;51.022;3.664;2023-02-21T11:13:13;9.60;99.90
56044;DHT22;41912;51.022;3.664;2023-02-21T11:15:40;9.60;99.90
56044;DHT22;41912;51.022;3.664;2023-02-21T11:18:22;9.60;99.90
56044;DHT22;41912;51.022;3.664;2023-02-21T11:20:49;9.60;99.90
56044;DHT22;41912;51.022;3.664;2023-02-21T11:23:26;9.70;99.90
56044;DHT22;41912;51.022;3.664;2023-02-21T11:26:08;9.60;99.90
56044;DHT22;41912;51.022;3.664;2023-02-21T11:28:42;9.60;99.90
56044;DHT22;41912;51.022;3.664;2023-02-21T11:31:30;9.70;99.90
56044;DHT22;41912;51.022;3.664;2023-02-21T11:33:59;9.70;99.90
56044;DHT22;41912;51.022;3.664;2023-02-21T11:43:56;9.80;99.90
56044;DHT22;41912;51.022;3.664;2023-02-21T11:54:12;9.80;99.90
56044;DHT22;41912;51.022;3.664;2023-02-21T12:04:28;9.80;99.90
56044;DHT22;41912;51.022;3.664;2023-02-21T12:13:47;9.90;99.90
56044;DHT22;41912;51.022;3.664;2023-02-21T12:19:16;9.90;99.90
56044;DHT22;41912;51.022;3.664;2023-02-21T12:27:03;10.00;99.90
56044;DHT22;41912;51.022;3.664;2023-02-21T12:29:49;10.00;99.90
56044;DHT22;41912;51.022;3.664;2023-02-21T12:48:45;10.10;99.90
56044;DHT22;41912;51.022;3.664;2023-02-21T12:51:17;10.10;99.90
56044;DHT22;41912;51.022;3.664;2023-02-21T12:54:04;10.10;99.90
56044;DHT22;41912;51.022;3.664;2023-02-21T12:56:45;10.20;99.90
56044;DHT22;41912;51.022;3.664;2023-02-21T13:05:24;10.20;99.90
56044;DHT22;41912;51.022;3.664;2023-02-21T13:08:08;10.20;99.90
56044;DHT22;41912;51.022;3.664;2023-02-21T13:13:24;10.20;99.90
56044;DHT22;41912;51.022;3.664;2023-02-21T13:15:52;10.20;99.90
56044;DHT22;41912;51.022;3.664;2023-02-21T13:18:28;10.10;99.90
56044;DHT22;41912;51.022;3.664;2023-02-21T13:21:03;10.20;99.90
56044;DHT22;41912;51.022;3.664;2023-02-21T13:23:31;10.20;99.90
56044;DHT22;41912;51.022;3.664;2023-02-21T13:26:16;10.20;99.90
56044;DHT22;41912;51.022;3.664;2023-02-21T13:28:46;10.30;99.90
56044;DHT22;41912;51.022;3.664;2023-02-21T13:31:21;10.20;99.90
56044;DHT22;41912;51.022;3.664;2023-02-21T13:33:58;10.20;99.90
56044;DHT22;41912;51.022;3.664;2023-02-21T13:36:50;10.30;99.90
56044;DHT22;41912;51.022;3.664;2023-02-21T13:39:19;10.30;99.90
56044;DHT22;41912;51.022;3.664;2023-02-21T13:41:52;10.30;99.90
56044;DHT22;41912;51.022;3.664;2023-02-21T13:44:41;10.30;99.90
56044;DHT22;41912;51.022;3.664;2023-02-21T13:47:22;10.40;99.90
56044;DHT22;41912;51.022;3.664;2023-02-21T13:49:57;10.40;99.90
56044;DHT22;41912;51.022;3.664;2023-02-21T13:58:30;10.40;99.90
56044;DHT22;41912;51.022;3.664;2023-02-21T14:00:54;10.40;99.90
56044;DHT22;41912;51.022;3.664;2023-02-21T14:08:35;10.40;99.90
56044;DHT22;41912;51.022;3.664;2023-02-21T14:13:49;10.40;99.90
56044;DHT22;41912;51.022;3.664;2023-02-21T14:16:33;10.40;99.90
56044;DHT22;41912;51.022;3.664;2023-02-21T14:19:07;10.40;99.90
56044;DHT22;41912;51.022;3.664;2023-02-21T14:21:40;10.40;99.90
56044;DHT22;41912;51.022;3.664;2023-02-21T14:37:37;10.40;99.90
56044;DHT22;41912;51.022;3.664;2023-02-21T15:06:43;10.40;99.90
56044;DHT22;41912;51.022;3.664;2023-02-21T15:09:12;10.40;99.90
56044;DHT22;41912;51.022;3.664;2023-02-21T15:11:42;10.40;99.90
56044;DHT22;41912;51.022;3.664;2023-02-21T15:16:43;10.40;99.90
56044;DHT22;41912;51.022;3.664;2023-02-21T15:19:39;10.30;99.90
56044;DHT22;41912;51.022;3.664;2023-02-21T15:30:12;10.40;99.90
56044;DHT22;41912;51.022;3.664;2023-02-21T15:32:38;10.40;99.90
56044;DHT22;41912;51.022;3.664;2023-02-21T15:35:11;10.40;99.90
56044;DHT22;41912;51.022;3.664;2023-02-21T15:37:42;10.40;99.90
56044;DHT22;41912;51.022;3.664;2023-02-21T15:40:15;10.40;99.90
56044;DHT22;41912;51.022;3.664;2023-02-21T15:42:42;10.40;99.90
56044;DHT22;41912;51.022;3.664;2023-02-21T15:45:31;10.40;99.90
56044;DHT22;41912;51.022;3.664;2023-02-21T15:47:58;10.40;99.90
56044;DHT22;41912;51.022;3.664;2023-02-21T15:50:28;10.30;99.90
56044;DHT22;41912;51.022;3.664;2023-02-21T15:52:55;10.30;99.90
56044;DHT22;41912;51.022;3.664;2023-02-21T15:55:34;10.30;99.90
56044;DHT22;41912;51.022;3.664;2023-02-21T15:58:13;10.30;99.90
56044;DHT22;41912;51.022;3.664;2023-02-21T16:00:40;10.30;99.90
56044;DHT22;41912;51.022;3.664;2023-02-21T16:03:36;10.30;99.90
56044;DHT22;41912;51.022;3.664;2023-02-21T16:06:29;10.30;99.90
56044;DHT22;41912;51.022;3.664;2023-02-21T16:09:28;10.30;99.90
56044;DHT22;41912;51.022;3.664;2023-02-21T16:15:18;10.30;99.90
56044;DHT22;41912;51.022;3.664;2023-02-21T16:17:52;10.30;99.90
56044;DHT22;41912;51.022;3.664;2023-02-21T16:20:20;10.20;99.90
56044;DHT22;41912;51.022;3.664;2023-02-21T16:28:29;10.20;99.90
56044;DHT22;41912;51.022;3.664;2023-02-21T16:30:57;10.10;99.90
56044;DHT22;41912;51.022;3.664;2023-02-21T16:33:24;10.10;99.90
56044;DHT22;41912;51.022;3.664;2023-02-21T16:35:50;10.10;99.90
56044;DHT22;41912;51.022;3.664;2023-02-21T16:38:18;10.30;99.90
56044;DHT22;41912;51.022;3.664;2023-02-21T16:40:44;10.20;99.90
56044;DHT22;41912;51.022;3.664;2023-02-21T16:43:25;10.20;99.90
56044;DHT22;41912;51.022;3.664;2023-02-21T16:45:54;10.20;99.90
56044;DHT22;41912;51.022;3.664;2023-02-21T16:48:30;10.10;99.90
56044;DHT22;41912;51.022;3.664;2023-02-21T16:51:03;10.00;99.90
56044;DHT22;41912;51.022;3.664;2023-02-21T16:53:29;10.00;99.90
56044;DHT22;41912;51.022;3.664;2023-02-21T16:55:56;10.00;99.90
56044;DHT22;41912;51.022;3.664;2023-02-21T16:58:27;9.90;99.90
56044;DHT22;41912;51.022;3.664;2023-02-21T17:01:03;9.90;99.90
56044;DHT22;41912;51.022;3.664;2023-02-21T17:03:29;9.90;99.90
56044;DHT22;41912;51.022;3.664;2023-02-21T17:05:57;9.80;99.90
56044;DHT22;41912;51.022;3.664;2023-02-21T17:08:24;9.90;99.90
56044;DHT22;41912;51.022;3.664;2023-02-21T17:10:51;9.90;99.90
56044;DHT22;41912;51.022;3.664;2023-02-21T17:13:17;9.90;99.90
56044;DHT22;41912;51.022;3.664;2023-02-21T17:15:43;9.90;99.90
56044;DHT22;41912;51.022;3.664;2023-02-21T17:18:08;9.90;99.90
56044;DHT22;41912;51.022;3.664;2023-02-21T17:20:34;9.90;99.90
56044;DHT22;41912;51.022;3.664;2023-02-21T17:22:59;9.90;99.90
56044;DHT22;41912;51.022;3.664;2023-02-21T17:25:27;9.90;99.90
56044;DHT22;41912;51.022;3.664;2023-02-21T17:27:53;9.90;99.90
56044;DHT22;41912;51.022;3.664;2023-02-21T17:30:22;9.90;99.90
56044;DHT22;41912;51.022;3.664;2023-02-21T17:32:49;9.80;99.90
56044;DHT22;41912;51.022;3.664;2023-02-21T17:35:17;9.90;99.90
56044;DHT22;41912;51.022;3.664;2023-02-21T17:37:44;9.80;99.90
56044;DHT22;41912;51.022;3.664;2023-02-21T17:40:13;9.80;99.90
56044;DHT22;41912;51.022;3.664;2023-02-21T17:42:39;9.80;99.90
56044;DHT22;41912;51.022;3.664;2023-02-21T17:45:05;9.80;99.90
56044;DHT22;41912;51.022;3.664;2023-02-21T17:47:31;9.80;99.90
56044;DHT22;41912;51.022;3.664;2023-02-21T17:49:57;9.80;99.90
56044;DHT22;41912;51.022;3.664;2023-02-21T17:52:25;9.80;99.90
56044;DHT22;41912;51.022;3.664;2023-02-21T17:54:50;9.80;99.90
56044;DHT22;41912;51.022;3.664;2023-02-21T17:57:16;9.80;99.90
56044;DHT22;41912;51.022;3.664;2023-02-21T17:59:42;9.80;99.90
56044;DHT22;41912;51.022;3.664;2023-02-21T18:02:09;9.80;99.90
56044;DHT22;41912;51.022;3.664;2023-02-21T18:04:36;9.70;99.90
56044;DHT22;41912;51.022;3.664;2023-02-21T18:07:02;9.70;99.90
56044;DHT22;41912;51.022;3.664;2023-02-21T18:09:28;9.70;99.90
56044;DHT22;41912;51.022;3.664;2023-02-21T18:11:56;9.70;99.90
56044;DHT22;41912;51.022;3.664;2023-02-21T18:14:22;9.70;99.90
56044;DHT22;41912;51.022;3.664;2023-02-21T18:16:49;9.70;99.90
56044;DHT22;41912;51.022;3.664;2023-02-21T18:19:15;9.60;99.90
56044;DHT22;41912;51.022;3.664;2023-02-21T18:21:44;9.60;99.90
56044;DHT22;41912;51.022;3.664;2023-02-21T18:24:11;9.60;99.90
56044;DHT22;41912;51.022;3.664;2023-02-21T18:26:38;9.60;99.90
56044;DHT22;41912;51.022;3.664;2023-02-21T18:29:04;9.60;99.90
56044;DHT22;41912;51.022;3.664;2023-02-21T18:31:30;9.60;99.90
56044;DHT22;41912;51.022;3.664;2023-02-21T18:33:56;9.60;99.90
56044;DHT22;41912;51.022;3.664;2023-02-21T18:36:22;9.60;99.90
56044;DHT22;41912;51.022;3.664;2023-02-21T18:38:48;9.60;99.90
56044;DHT22;41912;51.022;3.664;2023-02-21T18:41:16;9.60;99.90
56044;DHT22;41912;51.022;3.664;2023-02-21T18:43:42;9.50;99.90
56044;DHT22;41912;51.022;3.664;2023-02-21T18:46:19;9.60;99.90
56044;DHT22;41912;51.022;3.664;2023-02-21T18:48:47;9.50;99.90
56044;DHT22;41912;51.022;3.664;2023-02-21T18:51:14;9.50;99.90
56044;DHT22;41912;51.022;3.664;2023-02-21T18:53:44;9.50;99.90
56044;DHT22;41912;51.022;3.664;2023-02-21T18:56:11;9.50;99.90
56044;DHT22;41912;51.022;3.664;2023-02-21T18:58:38;9.40;99.90
56044;DHT22;41912;51.022;3.664;2023-02-21T19:01:04;9.40;99.90
56044;DHT22;41912;51.022;3.664;2023-02-21T19:03:30;9.40;99.90